Time;durP1;ratioP1;P1;durP2;ratioP2;P2;SDS_P1;SDS_P2;PMS_P1;PMS_P2;Temp;Humidity;BMP_temperature;BMP_pressure;BME280_temperature;BME280_humidity;BME280_pressure;Samples;Min_cycle;Max_cycle;Signal;HPM_P1;HPM_P2
2023/07/17 00:00:04;;;;;;;6.82;3.20;;;;;;;18.20;100.00;101226.84;5085362;28;20044;-57
2023/07/17 00:02:31;;;;;;;6.70;3.35;;;;;;;18.22;100.00;101232.09;5086714;28;20048;-56
2023/07/17 00:04:57;;;;;;;7.72;3.92;;;;;;;18.24;100.00;101235.53;5085158;28;20454;-57
2023/07/17 00:07:24;;;;;;;8.02;3.50;;;;;;;18.26;100.00;101241.59;5077800;28;20511;-56
2023/07/17 00:09:50;;;;;;;10.75;4.40;;;;;;;18.23;100.00;101226.66;5085274;28;20535;-56
2023/07/17 00:12:17;;;;;;;11.30;4.35;;;;;;;18.20;100.00;101226.00;5087329;28;20048;-56
2023/07/17 00:14:43;;;;;;;10.15;3.90;;;;;;;18.17;100.00;101225.25;5088150;28;20404;-56
2023/07/17 00:17:10;;;;;;;7.43;4.03;;;;;;;18.14;100.00;101232.63;5077282;28;20092;-56
2023/07/17 00:19:38;;;;;;;8.93;4.20;;;;;;;18.22;100.00;101229.44;5084356;28;20080;-56
2023/07/17 00:22:08;;;;;;;9.80;4.00;;;;;;;18.28;100.00;101226.31;5070217;28;20076;-56
2023/07/17 00:24:34;;;;;;;7.97;4.40;;;;;;;18.32;100.00;101230.47;5078347;28;20508;-56
2023/07/17 00:27:01;;;;;;;9.40;4.45;;;;;;;18.32;100.00;101235.84;5088193;28;20143;-56
2023/07/17 00:29:28;;;;;;;9.98;3.97;;;;;;;18.29;100.00;101230.69;5075724;28;20056;-56
2023/07/17 00:31:57;;;;;;;14.43;4.97;;;;;;;18.27;100.00;101227.28;5081677;28;20120;-56
2023/07/17 00:34:23;;;;;;;7.75;4.25;;;;;;;18.24;100.00;101227.50;5085337;28;20143;-56
2023/07/17 00:36:50;;;;;;;12.52;5.35;;;;;;;18.24;100.00;101222.16;5078739;28;20432;-56
2023/07/17 00:39:20;;;;;;;7.20;4.10;;;;;;;18.21;100.00;101222.34;5080806;28;20468;-56
2023/07/17 00:41:50;;;;;;;9.43;4.40;;;;;;;18.19;100.00;101219.78;5083943;28;20052;-56
2023/07/17 00:44:17;;;;;;;7.70;4.00;;;;;;;18.17;100.00;101214.53;5080996;28;20286;-57
2023/07/17 00:46:45;;;;;;;12.68;4.15;;;;;;;18.11;100.00;101206.09;5087617;28;20475;-56
2023/07/17 00:49:12;;;;;;;8.15;4.13;;;;;;;18.09;100.00;101208.88;5085140;28;20052;-56
2023/07/17 00:51:40;;;;;;;8.18;4.25;;;;;;;18.09;100.00;101208.88;5087155;28;20083;-56
2023/07/17 00:54:10;;;;;;;6.68;4.38;;;;;;;18.07;100.00;101202.78;5077848;28;20131;-57
2023/07/17 00:56:38;;;;;;;6.22;4.28;;;;;;;18.09;100.00;101206.19;5080476;28;20155;-56
2023/07/17 00:59:05;;;;;;;8.15;4.47;;;;;;;18.15;100.00;101196.91;5084273;28;20048;-56
2023/07/17 01:01:33;;;;;;;7.90;3.10;;;;;;;18.14;100.00;101201.41;5085824;28;20434;-56
2023/07/17 01:04:04;;;;;;;10.30;3.83;;;;;;;18.16;100.00;101202.16;5085212;28;20083;-56
2023/07/17 01:06:31;;;;;;;6.72;3.90;;;;;;;18.17;100.00;101211.03;5075929;28;20072;-56
2023/07/17 01:08:58;;;;;;;8.82;3.78;;;;;;;18.17;100.00;101201.16;5085547;28;20052;-56
2023/07/17 01:11:24;;;;;;;12.68;4.45;;;;;;;18.22;100.00;101205.34;5079196;28;20131;-57
2023/07/17 01:13:51;;;;;;;8.68;4.03;;;;;;;18.22;100.00;101202.69;5086249;28;20048;-57
2023/07/17 01:16:18;;;;;;;7.10;4.00;;;;;;;18.21;100.00;101200.94;5082987;28;20110;-56
2023/07/17 01:18:44;;;;;;;8.60;4.43;;;;;;;18.20;100.00;101199.25;5087152;28;20059;-56
2023/07/17 01:21:13;;;;;;;7.43;4.38;;;;;;;18.17;100.00;101206.50;5087424;28;20044;-56
2023/07/17 01:23:40;;;;;;;14.52;5.38;;;;;;;18.06;100.00;101206.41;5078546;28;20075;-56
2023/07/17 01:26:14;;;;;;;8.38;4.18;;;;;;;18.08;100.00;101219.69;5087323;28;20048;-56
2023/07/17 01:28:41;;;;;;;10.20;4.18;;;;;;;18.06;100.00;101214.44;5082012;28;20147;-56
2023/07/17 01:31:08;;;;;;;9.85;4.32;;;;;;;18.03;100.00;101209.34;5083982;28;20064;-56
2023/07/17 01:33:35;;;;;;;8.00;3.92;;;;;;;18.02;100.00;101207.59;5080072;28;20040;-56
2023/07/17 01:36:03;;;;;;;12.85;4.05;;;;;;;17.90;100.00;101209.31;5074642;28;20696;-56
2023/07/17 01:38:31;;;;;;;12.20;4.30;;;;;;;17.90;100.00;101198.63;5081916;28;20394;-56
2023/07/17 01:40:57;;;;;;;8.65;3.70;;;;;;;17.86;100.00;101198.91;5086960;28;20071;-56
2023/07/17 01:43:24;;;;;;;7.53;4.47;;;;;;;17.77;100.00;101203.94;5085060;28;20146;-56
2023/07/17 01:45:50;;;;;;;5.90;4.13;;;;;;;17.72;100.00;101200.72;5068654;28;20060;-56
2023/07/17 01:48:17;;;;;;;9.02;4.25;;;;;;;17.65;100.00;101210.09;5080221;28;20146;-56
2023/07/17 01:50:45;;;;;;;8.75;4.60;;;;;;;17.48;100.00;101213.94;5086535;28;20083;-56
2023/07/17 01:53:11;;;;;;;7.60;4.22;;;;;;;17.40;100.00;101217.13;5083944;28;20275;-56
2023/07/17 01:55:38;;;;;;;6.93;4.57;;;;;;;17.29;100.00;101208.97;5085480;28;20155;-56
2023/07/17 01:58:04;;;;;;;7.70;3.97;;;;;;;17.34;100.00;101197.97;5084883;28;20043;-56
2023/07/17 02:00:31;;;;;;;7.25;3.80;;;;;;;17.31;100.00;101201.72;5079475;28;20562;-56
2023/07/17 02:02:57;;;;;;;8.20;3.85;;;;;;;17.24;100.00;101205.75;5086994;28;20052;-56
2023/07/17 02:05:24;;;;;;;8.68;4.43;;;;;;;17.18;100.00;101211.47;5085781;28;20048;-56
2023/07/17 02:07:51;;;;;;;10.25;4.53;;;;;;;17.12;100.00;101211.91;5075910;28;20072;-56
2023/07/17 02:10:17;;;;;;;10.23;5.25;;;;;;;17.10;100.00;101219.16;5086666;28;20054;-56
2023/07/17 02:12:45;;;;;;;8.05;3.65;;;;;;;17.09;100.00;101207.63;5082577;28;20051;-56
2023/07/17 02:15:12;;;;;;;7.65;3.80;;;;;;;17.10;100.00;101211.13;5084900;28;20051;-56
2023/07/17 02:17:39;;;;;;;7.97;4.13;;;;;;;17.00;100.00;101219.78;5081889;28;20453;-56
2023/07/17 02:20:10;;;;;;;7.10;3.85;;;;;;;16.95;100.00;101215.66;5086061;28;20131;-56
2023/07/17 02:22:37;;;;;;;10.10;4.47;;;;;;;16.92;100.00;101216.75;5084816;28;20563;-56
2023/07/17 02:25:08;;;;;;;10.88;4.47;;;;;;;16.90;100.00;101218.63;5074060;28;20048;-56
2023/07/17 02:27:35;;;;;;;11.40;4.32;;;;;;;16.91;100.00;101224.84;5084719;28;20126;-56
2023/07/17 02:30:03;;;;;;;6.50;4.30;;;;;;;16.93;100.00;101213.09;5077123;28;20045;-56
2023/07/17 02:32:31;;;;;;;15.88;4.60;;;;;;;16.95;100.00;101216.53;5080465;28;20075;-56
2023/07/17 02:34:57;;;;;;;9.02;3.78;;;;;;;17.00;100.00;101222.44;5086263;28;20455;-56
2023/07/17 02:37:24;;;;;;;5.60;3.72;;;;;;;16.99;100.00;101223.38;5083927;28;20048;-56
2023/07/17 02:39:54;;;;;;;7.97;4.15;;;;;;;17.02;100.00;101225.84;5082461;28;20058;-56
2023/07/17 02:42:20;;;;;;;9.60;3.75;;;;;;;17.01;100.00;101221.47;5078846;28;20044;-56
2023/07/17 02:44:47;;;;;;;9.30;4.13;;;;;;;17.01;100.00;101224.13;5076053;28;20059;-56
2023/07/17 02:47:15;;;;;;;7.03;3.60;;;;;;;16.93;100.00;101229.13;5082614;28;20139;-56
2023/07/17 02:49:42;;;;;;;14.25;4.28;;;;;;;17.00;100.00;101225.09;5083584;28;20060;-56
2023/07/17 02:52:09;;;;;;;9.82;4.15;;;;;;;16.92;100.00;101222.09;5090803;28;20610;-56
2023/07/17 02:54:39;;;;;;;6.97;4.15;;;;;;;16.89;100.00;101232.97;5082748;28;20147;-56
2023/07/17 02:57:06;;;;;;;9.10;4.03;;;;;;;16.83;100.00;101222.63;5087196;28;20048;-56
2023/07/17 02:59:33;;;;;;;9.73;4.38;;;;;;;16.76;100.00;101229.34;5089456;28;20140;-56
2023/07/17 03:02:00;;;;;;;9.27;3.70;;;;;;;16.78;100.00;101230.09;5090323;28;20197;-56
2023/07/17 03:04:26;;;;;;;7.18;4.30;;;;;;;16.68;100.00;101229.81;5090233;28;20059;-56
2023/07/17 03:06:53;;;;;;;9.27;4.13;;;;;;;16.62;100.00;101217.69;5091384;28;20152;-56
2023/07/17 03:09:20;;;;;;;10.82;4.78;;;;;;;16.62;100.00;101220.38;5093061;28;20047;-56
2023/07/17 03:11:47;;;;;;;8.43;4.30;;;;;;;16.65;100.00;101220.19;5092854;28;20154;-56
2023/07/17 03:14:14;;;;;;;9.00;4.60;;;;;;;16.73;100.00;101226.84;5090205;28;20075;-56
2023/07/17 03:16:41;;;;;;;10.30;4.35;;;;;;;16.79;100.00;101226.47;5091704;28;20101;-56
2023/07/17 03:19:09;;;;;;;14.00;3.83;;;;;;;16.80;100.00;101233.50;5085604;28;20085;-56
2023/07/17 03:21:36;;;;;;;14.13;5.68;;;;;;;16.84;100.00;101233.22;5090095;28;20509;-56
2023/07/17 03:24:04;;;;;;;7.72;4.80;;;;;;;16.79;100.00;101242.50;5090174;28;20380;-56
2023/07/17 03:26:30;;;;;;;6.35;4.25;;;;;;;16.76;100.00;101245.34;5089545;28;20185;-56
2023/07/17 03:28:57;;;;;;;8.32;4.18;;;;;;;16.75;100.00;101235.63;5089926;28;20555;-56
2023/07/17 03:31:24;;;;;;;11.30;4.75;;;;;;;16.74;100.00;101231.22;5089478;28;20101;-56
2023/07/17 03:33:50;;;;;;;7.25;3.70;;;;;;;16.71;100.00;101229.63;5089996;28;20403;-56
2023/07/17 03:36:17;;;;;;;7.50;4.10;;;;;;;16.67;100.00;101231.63;5089449;28;20115;-56
2023/07/17 03:38:44;;;;;;;9.63;4.22;;;;;;;16.68;100.00;101235.16;5089830;28;20144;-56
2023/07/17 03:41:10;;;;;;;9.20;4.18;;;;;;;16.62;100.00;101238.22;5090092;28;20075;-56
2023/07/17 03:43:37;;;;;;;7.30;4.50;;;;;;;16.65;100.00;101243.34;5088447;28;20140;-56
2023/07/17 03:46:03;;;;;;;8.48;4.65;;;;;;;16.75;100.00;101255.16;5089940;28;20051;-56
2023/07/17 03:48:30;;;;;;;9.45;4.32;;;;;;;16.69;100.00;101253.75;5089484;28;20113;-57
2023/07/17 03:50:56;;;;;;;7.15;4.18;;;;;;;16.54;100.00;101243.16;5089702;28;20055;-56
2023/07/17 03:53:27;;;;;;;9.63;3.90;;;;;;;16.48;100.00;101255.09;5079022;28;20089;-56
2023/07/17 03:55:53;;;;;;;10.45;4.43;;;;;;;16.44;100.00;101259.75;5090016;28;20113;-56
2023/07/17 03:58:20;;;;;;;12.98;4.28;;;;;;;16.42;100.00;101260.81;5089516;28;20123;-57
2023/07/17 04:00:46;;;;;;;8.73;4.57;;;;;;;16.43;100.00;101257.16;5090318;28;20056;-56
2023/07/17 04:03:13;;;;;;;9.13;4.50;;;;;;;16.54;100.00;101260.03;5089119;28;20064;-56
2023/07/17 04:05:40;;;;;;;12.80;4.82;;;;;;;16.54;100.00;101249.34;5089324;28;20056;-56
2023/07/17 04:08:07;;;;;;;7.25;4.80;;;;;;;16.58;100.00;101250.03;5088524;28;20626;-56
2023/07/17 04:10:34;;;;;;;12.30;5.13;;;;;;;16.60;100.00;101243.63;5088881;28;20047;-56
2023/07/17 04:13:01;;;;;;;9.15;4.35;;;;;;;16.58;100.00;101234.88;5089878;28;20056;-56
2023/07/17 04:15:29;;;;;;;12.20;4.70;;;;;;;16.60;100.00;101243.63;5087865;28;20083;-56
2023/07/17 04:17:55;;;;;;;8.70;5.13;;;;;;;16.70;100.00;101255.44;5088769;28;20048;-56
2023/07/17 04:20:22;;;;;;;8.68;4.88;;;;;;;16.79;100.00;101261.19;5089451;28;20159;-56
2023/07/17 04:22:49;;;;;;;8.98;4.25;;;;;;;16.85;100.00;101263.47;5089717;28;20135;-56
2023/07/17 04:25:16;;;;;;;12.30;4.70;;;;;;;16.85;100.00;101258.13;5088374;28;20044;-56
2023/07/17 04:27:42;;;;;;;7.75;4.32;;;;;;;16.86;100.00;101270.53;5089435;28;20539;-56
2023/07/17 04:30:09;;;;;;;9.73;4.47;;;;;;;16.81;100.00;101259.25;5088645;28;20111;-56
2023/07/17 04:32:36;;;;;;;10.43;5.53;;;;;;;16.74;100.00;101257.91;5087731;28;20062;-56
2023/07/17 04:35:03;;;;;;;10.40;4.90;;;;;;;16.77;100.00;101255.06;5088210;28;20143;-56
2023/07/17 04:37:30;;;;;;;10.30;5.65;;;;;;;16.83;100.00;101249.34;5087708;28;20048;-56
2023/07/17 04:39:56;;;;;;;12.05;4.43;;;;;;;16.87;100.00;101250.91;5088430;28;20047;-56
2023/07/17 04:42:23;;;;;;;16.98;5.15;;;;;;;17.01;100.00;101258.84;5088560;28;20048;-56
2023/07/17 04:44:49;;;;;;;11.52;5.03;;;;;;;17.14;100.00;101247.38;5087458;28;20047;-56
2023/07/17 04:47:16;;;;;;;8.57;4.55;;;;;;;17.28;100.00;101258.03;5088170;28;20058;-56
2023/07/17 04:49:43;;;;;;;11.95;4.40;;;;;;;17.47;100.00;101259.47;5088582;28;20060;-56
2023/07/17 04:52:09;;;;;;;7.47;4.97;;;;;;;17.52;100.00;101252.84;5088304;28;20048;-56
2023/07/17 04:54:36;;;;;;;11.30;4.70;;;;;;;17.61;100.00;101256.72;5087934;28;20552;-56
2023/07/17 04:57:03;;;;;;;8.80;4.22;;;;;;;17.61;100.00;101262.06;5088236;28;20143;-56
2023/07/17 04:59:30;;;;;;;11.18;5.00;;;;;;;17.61;100.00;101262.91;5088343;28;20138;-56
2023/07/17 05:01:56;;;;;;;7.60;4.30;;;;;;;17.62;100.00;101271.78;5087174;28;20448;-56
2023/07/17 05:04:23;;;;;;;9.20;5.00;;;;;;;17.58;100.00;101272.97;5087671;28;20051;-56
2023/07/17 05:06:49;;;;;;;9.00;4.63;;;;;;;17.59;100.00;101255.97;5088183;28;20449;-56
2023/07/17 05:09:16;;;;;;;9.80;5.30;;;;;;;17.59;100.00;101264.84;5087549;28;20061;-56
2023/07/17 05:11:42;;;;;;;9.90;4.57;;;;;;;17.69;100.00;101264.25;5088067;28;20123;-56
2023/07/17 05:14:09;;;;;;;6.90;4.28;;;;;;;17.68;100.00;101258.00;5088226;28;20170;-56
2023/07/17 05:16:36;;;;;;;11.05;5.13;;;;;;;17.73;100.00;101261.22;5087705;28;20368;-56
2023/07/17 05:19:02;;;;;;;6.68;4.82;;;;;;;17.78;100.00;101264.47;5086738;28;20083;-56
2023/07/17 05:21:29;;;;;;;10.40;4.45;;;;;;;17.79;100.00;101270.66;5087793;28;20040;-57
2023/07/17 05:23:56;;;;;;;7.63;4.07;;;;;;;17.84;100.00;101265.00;5087890;28;20056;-56
2023/07/17 05:26:22;;;;;;;13.15;4.70;;;;;;;17.89;100.00;101278.94;5087646;28;20400;-56
2023/07/17 05:28:50;;;;;;;19.52;6.07;;;;;;;18.01;100.00;101269.22;5087790;28;20055;-56
2023/07/17 05:31:17;;;;;;;8.50;5.03;;;;;;;18.07;100.00;101268.81;5087769;28;20044;-56
2023/07/17 05:33:45;;;;;;;8.48;4.25;;;;;;;18.17;100.00;101270.72;5087852;28;20052;-56
2023/07/17 05:36:11;;;;;;;9.95;4.47;;;;;;;18.35;100.00;101273.09;5087476;28;20052;-56
2023/07/17 05:38:38;;;;;;;10.80;4.35;;;;;;;18.44;100.00;101269.78;5087712;28;20369;-56
2023/07/17 05:41:04;;;;;;;8.15;4.30;;;;;;;18.49;100.00;101267.63;5087669;28;20044;-56
2023/07/17 05:43:31;;;;;;;5.43;3.70;;;;;;;18.68;100.00;101263.63;5087304;28;20058;-56
2023/07/17 05:45:58;;;;;;;11.00;5.22;;;;;;;18.91;100.00;101263.81;5087165;28;20472;-56
2023/07/17 05:48:25;;;;;;;7.85;4.00;;;;;;;19.15;100.00;101267.38;5087311;28;20052;-56
2023/07/17 05:50:51;;;;;;;8.63;4.18;;;;;;;19.35;100.00;101273.09;5087475;28;20468;-56
2023/07/17 05:53:18;;;;;;;5.78;4.00;;;;;;;19.33;100.00;101275.03;5087145;28;20526;-56
2023/07/17 05:55:45;;;;;;;12.95;5.45;;;;;;;19.39;100.00;101275.41;5087278;28;20116;-56
2023/07/17 05:58:11;;;;;;;15.82;5.05;;;;;;;19.62;100.00;101268.31;5087332;28;20405;-56
2023/07/17 06:00:38;;;;;;;11.77;4.65;;;;;;;19.78;100.00;101269.88;5087347;28;20062;-56
2023/07/17 06:03:05;;;;;;;9.70;4.05;;;;;;;19.98;100.00;101271.88;5086814;28;20491;-56
2023/07/17 06:05:38;;;;;;;8.55;4.18;;;;;;;19.99;100.00;101278.97;5086890;28;20465;-56
2023/07/17 06:08:06;;;;;;;7.65;4.55;;;;;;;19.91;100.00;101276.03;5087434;28;20563;-56
2023/07/17 06:10:32;;;;;;;12.23;4.55;;;;;;;19.99;100.00;101280.78;5087158;28;20048;-56
2023/07/17 06:12:59;;;;;;;7.38;4.00;;;;;;;19.94;100.00;101286.53;5087004;28;20140;-56
2023/07/17 06:15:27;;;;;;;8.88;5.50;;;;;;;19.85;100.00;101292.56;5086769;28;20168;-56
2023/07/17 06:17:53;;;;;;;8.95;4.45;;;;;;;19.71;100.00;101295.41;5086919;28;20078;-57
2023/07/17 06:20:20;;;;;;;9.57;4.97;;;;;;;19.67;100.00;101293.94;5087065;28;20062;-57
2023/07/17 06:22:47;;;;;;;7.40;4.63;;;;;;;19.86;100.00;101288.06;5086831;28;20067;-57
2023/07/17 06:25:14;;;;;;;19.10;5.68;;;;;;;19.94;100.00;101297.25;5086815;28;20059;-57
2023/07/17 06:27:41;;;;;;;10.23;5.65;;;;;;;20.20;100.00;101286.31;5086791;28;20135;-57
2023/07/17 06:30:08;;;;;;;13.00;5.57;;;;;;;20.25;100.00;101284.09;5087160;28;20415;-56
2023/07/17 06:32:35;;;;;;;10.27;5.07;;;;;;;20.11;100.00;101285.19;5088984;28;20044;-57
2023/07/17 06:35:05;;;;;;;10.32;4.07;;;;;;;20.16;100.00;101284.84;5090924;28;20060;-55
2023/07/17 06:37:31;;;;;;;7.88;5.18;;;;;;;20.12;100.00;101294.09;5091134;28;20052;-56
2023/07/17 06:39:58;;;;;;;10.32;5.45;;;;;;;20.07;100.00;101290.91;5091390;28;20051;-56
2023/07/17 06:42:25;;;;;;;6.95;4.50;;;;;;;20.16;100.00;101283.00;5091005;28;20486;-57
2023/07/17 06:44:51;;;;;;;8.65;4.45;;;;;;;20.38;100.00;101288.53;5090789;28;20050;-57
2023/07/17 06:47:18;;;;;;;10.25;4.88;;;;;;;20.39;100.00;101295.63;5090249;28;20066;-57
2023/07/17 06:50:00;;;;;;;10.80;4.53;;;;;;;20.49;100.00;101296.59;5090837;28;20059;-57
2023/07/17 06:52:26;;;;;;;12.70;4.78;;;;;;;20.39;100.00;101295.63;5090721;28;20044;-58
2023/07/17 06:54:53;;;;;;;10.60;4.43;;;;;;;20.52;100.00;101296.34;5090603;28;20375;-56
2023/07/17 06:57:31;;;;;;;9.27;4.63;;;;;;;20.52;100.00;101297.19;5088211;28;20044;-55
2023/07/17 06:59:58;;;;;;;8.00;4.10;;;;;;;20.64;100.00;101295.41;5089076;28;20260;-56
2023/07/17 07:02:24;;;;;;;9.20;4.82;;;;;;;20.78;100.00;101297.00;5080275;28;20068;-56
2023/07/17 07:04:51;;;;;;;12.40;4.45;;;;;;;20.95;100.00;101292.94;5088813;28;20044;-57
2023/07/17 07:07:17;;;;;;;11.95;4.82;;;;;;;21.08;100.00;101299.00;5090612;28;20052;-56
2023/07/17 07:09:45;;;;;;;8.02;4.50;;;;;;;20.86;100.00;101299.91;5090353;28;20075;-56
2023/07/17 07:12:12;;;;;;;10.00;4.78;;;;;;;21.09;100.00;101294.50;5090489;28;20175;-56
2023/07/17 07:14:39;;;;;;;12.35;4.47;;;;;;;21.15;100.00;101293.16;5090143;28;20058;-56
2023/07/17 07:17:05;;;;;;;11.43;4.78;;;;;;;21.18;100.00;101292.91;5090145;28;20097;-56
2023/07/17 07:19:32;;;;;;;11.23;4.90;;;;;;;21.40;100.00;101298.22;5090612;28;20048;-56
2023/07/17 07:21:58;;;;;;;15.50;5.78;;;;;;;21.33;100.00;101302.38;5091545;28;20183;-56
2023/07/17 07:24:25;;;;;;;11.93;5.05;;;;;;;21.39;100.00;101299.19;5089947;28;20052;-57
2023/07/17 07:26:51;;;;;;;6.88;4.05;;;;;;;21.76;100.00;101298.84;5089963;28;20087;-57
2023/07/17 07:29:18;;;;;;;8.40;4.07;;;;;;;22.05;100.00;101292.81;5090349;28;20055;-56
2023/07/17 07:31:44;;;;;;;6.75;4.03;;;;;;;22.02;100.00;101298.47;5090293;28;20044;-57
2023/07/17 07:34:11;;;;;;;6.90;3.88;;;;;;;22.18;100.00;101292.59;5090362;28;20094;-57
2023/07/17 07:36:38;;;;;;;9.52;4.43;;;;;;;22.16;100.00;101292.72;5090423;28;20520;-57
2023/07/17 07:39:07;;;;;;;7.35;3.83;;;;;;;22.31;100.00;101303.19;5090067;28;20047;-57
2023/07/17 07:41:35;;;;;;;10.65;5.50;;;;;;;22.41;100.00;101314.88;5090208;28;20650;-57
2023/07/17 07:44:02;;;;;;;10.45;4.00;;;;;;;22.53;100.00;101311.09;5089852;28;20052;-57
2023/07/17 07:46:29;;;;;;;7.50;4.03;;;;;;;22.63;100.00;101313.00;5089650;28;20468;-57
2023/07/17 07:48:55;;;;;;;6.00;4.70;;;;;;;22.86;100.00;101324.44;5090210;28;20086;-57
2023/07/17 07:51:22;;;;;;;9.32;3.78;;;;;;;22.97;97.55;101326.16;5082999;28;20416;-57
2023/07/17 07:53:48;;;;;;;7.32;3.78;;;;;;;22.79;93.60;101317.88;5090143;28;20074;-57
2023/07/17 07:56:15;;;;;;;6.65;3.92;;;;;;;22.86;93.18;101325.28;5089189;28;20052;-57
2023/07/17 07:58:43;;;;;;;8.00;4.35;;;;;;;23.16;93.78;101326.25;5085057;28;20093;-57
2023/07/17 08:01:09;;;;;;;8.20;4.10;;;;;;;23.28;92.32;101341.31;5089635;28;20059;-57
2023/07/17 08:03:37;;;;;;;7.10;3.40;;;;;;;23.24;89.66;101328.25;5089181;28;20048;-57
2023/07/17 08:06:04;;;;;;;11.75;4.65;;;;;;;23.17;90.35;101338.75;5088937;28;20127;-57
2023/07/17 08:08:30;;;;;;;12.00;4.10;;;;;;;23.13;89.89;101326.53;5089081;28;20464;-57
2023/07/17 08:10:57;;;;;;;9.15;3.92;;;;;;;23.40;89.98;101333.13;5089431;28;20580;-57
2023/07/17 08:13:24;;;;;;;9.25;3.50;;;;;;;23.28;89.28;101329.69;5088896;28;20067;-56
2023/07/17 08:15:51;;;;;;;10.02;3.85;;;;;;;23.14;87.67;101325.53;5088936;28;20135;-56
2023/07/17 08:18:17;;;;;;;8.07;4.10;;;;;;;23.25;87.38;101336.22;5073577;28;20048;-56
2023/07/17 08:20:44;;;;;;;11.35;3.60;;;;;;;23.37;86.31;101333.38;5079786;28;20044;-56
2023/07/17 08:23:11;;;;;;;7.93;3.92;;;;;;;23.24;84.87;101329.09;5079692;28;20133;-56
2023/07/17 08:25:38;;;;;;;11.18;3.38;;;;;;;23.18;85.12;101318.88;5088183;28;20131;-57
2023/07/17 08:28:05;;;;;;;9.65;3.45;;;;;;;23.50;84.21;101317.78;5073391;28;20391;-57
2023/07/17 08:30:32;;;;;;;8.98;3.47;;;;;;;23.19;85.24;101325.97;5071863;28;20044;-57
2023/07/17 08:32:58;;;;;;;7.80;3.83;;;;;;;23.42;82.04;101331.13;5088930;28;20082;-57
2023/07/17 08:35:25;;;;;;;7.93;3.67;;;;;;;23.47;81.60;101334.25;5088433;28;20066;-59
2023/07/17 08:37:52;;;;;;;13.77;3.90;;;;;;;23.37;81.06;101328.00;5089058;28;20090;-57
2023/07/17 08:40:18;;;;;;;8.88;3.78;;;;;;;23.43;81.32;101327.44;5088974;28;20048;-57
2023/07/17 08:42:46;;;;;;;9.50;4.07;;;;;;;23.67;79.92;101318.06;5086922;28;20083;-58
2023/07/17 08:45:14;;;;;;;12.27;3.72;;;;;;;23.90;77.61;101324.94;5083297;28;20117;-56
2023/07/17 08:47:40;;;;;;;10.25;3.83;;;;;;;23.80;79.55;101319.50;5090035;28;20048;-57
2023/07/17 08:50:08;;;;;;;8.93;3.53;;;;;;;24.07;80.33;101314.41;5082803;28;20059;-57
2023/07/17 08:52:35;;;;;;;5.60;2.92;;;;;;;23.79;76.65;101319.66;5089385;28;20074;-57
2023/07/17 08:55:01;;;;;;;5.18;2.63;;;;;;;24.11;77.33;101311.25;5082315;28;20048;-58
2023/07/17 08:57:31;;;;;;;8.32;4.15;;;;;;;24.05;79.66;101311.00;5086115;28;20051;-57
2023/07/17 08:59:57;;;;;;;10.43;3.50;;;;;;;24.12;73.96;101317.50;5088920;28;20052;-57
2023/07/17 09:02:25;;;;;;;9.82;3.38;;;;;;;24.45;72.46;101313.44;5088938;28;20399;-57
2023/07/17 09:04:51;;;;;;;7.20;3.00;;;;;;;24.36;71.21;101307.06;5076677;28;20164;-57
2023/07/17 09:07:18;;;;;;;11.45;3.63;;;;;;;24.56;72.74;101317.84;5086350;28;20050;-57
2023/07/17 09:09:44;;;;;;;12.55;4.03;;;;;;;24.43;71.24;101309.19;5089251;28;20048;-57
2023/07/17 09:12:15;;;;;;;10.77;3.78;;;;;;;24.65;71.51;101308.84;5088330;28;20050;-57
2023/07/17 09:14:42;;;;;;;8.00;3.55;;;;;;;24.78;68.21;101307.66;5081654;28;20048;-57
2023/07/17 09:17:10;;;;;;;6.63;3.75;;;;;;;24.53;64.69;101316.25;5085381;28;20056;-57
2023/07/17 09:19:37;;;;;;;5.18;3.30;;;;;;;24.66;67.29;101315.94;5095944;28;20056;-57
2023/07/17 09:22:05;;;;;;;10.40;3.92;;;;;;;24.72;66.30;101315.34;5088499;28;20055;-57
2023/07/17 09:24:33;;;;;;;14.48;4.40;;;;;;;25.08;66.92;101320.88;5085995;28;20662;-57
2023/07/17 09:27:00;;;;;;;7.03;3.40;;;;;;;24.65;63.00;101318.78;5072894;28;20049;-57
2023/07/17 09:29:27;;;;;;;8.55;3.25;;;;;;;24.71;63.49;101307.41;5087961;28;20074;-58
2023/07/17 09:31:54;;;;;;;10.27;2.83;;;;;;;24.91;60.56;101310.84;5081308;28;20075;-58
2023/07/17 09:34:21;;;;;;;12.75;3.47;;;;;;;24.96;60.98;101311.25;5076877;28;20173;-58
2023/07/17 09:36:51;;;;;;;13.13;4.07;;;;;;;25.02;61.38;101305.25;5067935;28;20049;-58
2023/07/17 09:39:18;;;;;;;9.65;3.05;;;;;;;24.74;62.59;101317.91;5078248;28;20054;-58
2023/07/17 09:41:44;;;;;;;6.35;3.28;;;;;;;24.47;61.17;101310.59;5088015;28;20574;-57
2023/07/17 09:44:17;;;;;;;7.25;3.33;;;;;;;24.26;65.19;101316.19;5079896;28;20044;-58
2023/07/17 09:46:44;;;;;;;6.55;3.30;;;;;;;24.32;65.95;101313.75;5087691;28;20073;-57
2023/07/17 09:49:12;;;;;;;8.52;3.63;;;;;;;24.58;65.80;101310.44;5077246;28;20147;-57
2023/07/17 09:51:38;;;;;;;9.70;2.80;;;;;;;24.83;64.73;101311.63;5087513;28;20068;-58
2023/07/17 09:54:05;;;;;;;10.23;4.00;;;;;;;24.88;61.45;101312.03;5079274;28;20093;-59
2023/07/17 09:56:32;;;;;;;13.30;4.38;;;;;;;24.81;61.61;101312.75;5085514;28;20052;-56
2023/07/17 09:59:13;;;;;;;9.95;3.83;;;;;;;25.05;59.91;101315.75;5080686;28;20147;-56
2023/07/17 10:01:47;;;;;;;8.57;4.25;;;;;;;25.07;61.74;101313.75;5086787;28;20048;-56
2023/07/17 10:04:25;;;;;;;7.57;2.80;;;;;;;25.03;61.31;101312.38;5087563;28;20072;-58
2023/07/17 10:06:53;;;;;;;7.38;3.58;;;;;;;25.44;60.77;101299.31;5086739;28;20541;-57
2023/07/17 10:09:21;;;;;;;11.68;3.58;;;;;;;25.99;56.49;101305.53;5087698;28;20060;-57
2023/07/17 10:11:48;;;;;;;9.27;3.60;;;;;;;26.01;54.57;101300.84;5083754;28;20079;-57
2023/07/17 10:14:15;;;;;;;7.05;2.88;;;;;;;25.94;55.98;101305.13;5069808;28;20079;-58
2023/07/17 10:16:42;;;;;;;11.80;3.35;;;;;;;25.16;56.84;101313.84;5082206;28;20055;-58
2023/07/17 10:19:09;;;;;;;11.73;4.30;;;;;;;25.12;57.71;101312.47;5085577;28;20512;-57
2023/07/17 10:21:53;;;;;;;5.30;2.30;;;;;;;24.91;56.62;101313.56;5083997;28;20558;-57
2023/07/17 10:24:24;;;;;;;7.47;3.03;;;;;;;24.91;56.11;101314.44;5087150;28;20062;-56
2023/07/17 10:26:51;;;;;;;9.52;3.00;;;;;;;24.97;55.84;101315.66;5086958;28;20501;-56
2023/07/17 10:29:50;;;;;;;12.23;3.60;;;;;;;25.59;55.61;101315.00;5086848;28;20068;-57
2023/07/17 10:32:18;;;;;;;9.07;3.30;;;;;;;25.82;53.64;101315.38;5064138;28;20049;-57
2023/07/17 10:34:49;;;;;;;8.98;2.88;;;;;;;25.93;53.87;101314.28;5066449;28;20135;-57
2023/07/17 10:37:41;;;;;;;7.60;3.15;;;;;;;25.85;51.73;101317.78;5067004;28;20064;-57
2023/07/17 10:40:25;;;;;;;9.93;2.97;;;;;;;25.56;52.14;101304.50;5067944;28;20091;-57
2023/07/17 10:42:51;;;;;;;4.93;2.90;;;;;;;25.31;50.59;101315.06;5067157;28;20044;-57
2023/07/17 10:45:18;;;;;;;10.73;2.70;;;;;;;25.05;49.31;101304.94;5077174;28;20062;-57
2023/07/17 10:47:52;;;;;;;7.22;2.13;;;;;;;25.51;48.60;101298.69;5097869;28;20040;-57
2023/07/17 10:50:18;;;;;;;8.52;2.55;;;;;;;25.82;48.89;101293.72;5087219;28;20056;-57
2023/07/17 10:52:45;;;;;;;7.95;2.40;;;;;;;25.74;48.69;101297.19;5088148;28;20131;-57
2023/07/17 10:55:12;;;;;;;7.50;2.30;;;;;;;25.72;48.17;101296.50;5086729;28;20189;-56
2023/07/17 10:57:38;;;;;;;7.75;2.28;;;;;;;26.26;47.02;101298.28;5087093;28;20054;-57
2023/07/17 11:00:06;;;;;;;6.05;2.65;;;;;;;26.47;46.52;101298.75;5069829;28;20128;-57
2023/07/17 11:02:33;;;;;;;11.27;3.33;;;;;;;26.45;44.47;101292.66;5081820;28;20140;-56
2023/07/17 11:05:02;;;;;;;10.63;3.53;;;;;;;27.48;42.67;101291.69;5085535;28;20463;-57
2023/07/17 11:07:36;;;;;;;9.23;2.45;;;;;;;28.28;40.01;101291.00;5083202;28;20048;-58
2023/07/17 11:10:03;;;;;;;4.55;2.50;;;;;;;27.22;42.67;101297.22;5074916;28;20056;-58
2023/07/17 11:12:31;;;;;;;7.30;3.03;;;;;;;26.72;44.05;101309.75;5066249;28;20099;-59
2023/07/17 11:14:57;;;;;;;7.75;2.25;;;;;;;26.14;45.37;101295.84;5066475;28;20448;-57
2023/07/17 11:17:24;;;;;;;8.40;2.80;;;;;;;25.73;46.49;101295.50;5068135;28;20110;-57